Time;durP1;ratioP1;P1;durP2;ratioP2;P2;SDS_P1;SDS_P2;PMS_P1;PMS_P2;Temp;Humidity;BMP_temperature;BMP_pressure;BME280_temperature;BME280_humidity;BME280_pressure;Samples;Min_cycle;Max_cycle;Signal;HPM_P1;HPM_P2
2021/10/05 00:00:18;;;;;;;;;;;;;;;;;;2104013;27;4780;-75
2021/10/05 00:01:19;;;;;;;;;;;;;;;;;;2105282;27;2336;-75
2021/10/05 00:02:19;;;;;;;;;;;;;;;;;;2105643;27;2349;-75
2021/10/05 00:03:20;;;;;;;;;;;;;;;;;;2103888;27;4680;-75
2021/10/05 00:04:21;;;;;;;;;;;;;;;;;;2105900;27;4007;-75
2021/10/05 00:05:22;;;;;;;;;;;;;;;;;;2105314;27;2133;-75
2021/10/05 00:06:22;;;;;;;;;;;;;;;;;;2104266;27;4907;-75
2021/10/05 00:07:23;;;;;;;;;;;;;;;;;;2107536;27;2859;-75
2021/10/05 00:08:23;;;;;;;;;;;;;;;;;;2105674;27;2624;-75
2021/10/05 00:09:24;;;;;;;;;;;;;;;;;;2106064;27;2796;-75
2021/10/05 00:10:24;;;;;;;;;;;;;;;;;;2106406;27;3422;-76
2021/10/05 00:11:25;;;;;;;;;;;;;;;;;;2105781;27;2690;-75
2021/10/05 00:12:27;;;;;;;;;;;;;;;;;;2104783;27;3688;-75
2021/10/05 00:13:27;;;;;;;;;;;;;;;;;;2105701;27;2700;-75
2021/10/05 00:14:28;;;;;;;;;;;;;;;;;;2105079;27;4445;-76
2021/10/05 00:15:28;;;;;;;;;;;;;;;;;;2105991;27;4874;-75
2021/10/05 00:16:29;;;;;;;;;;;;;;;;;;2102856;27;5013;-75
2021/10/05 00:17:29;;;;;;;;;;;;;;;;;;2107637;27;1902;-75
2021/10/05 00:18:31;;;;;;;;;;;;;;;;;;2107727;27;4174;-75
2021/10/05 00:19:31;;;;;;;;;;;;;;;;;;2107159;27;2851;-75
2021/10/05 00:20:33;;;;;;;;;;;;;;;;;;2107473;27;2217;-75
2021/10/05 00:21:34;;;;;;;;;;;;;;;;;;2108266;27;2540;-75
2021/10/05 00:22:35;;;;;;;;;;;;;;;;;;2108042;27;1036;-76
2021/10/05 00:23:35;;;;;;;;;;;;;;;;;;2107733;27;1332;-75
2021/10/05 00:24:36;;;;;;;;;;;;;;;;;;2107384;27;4426;-75
2021/10/05 00:25:37;;;;;;;;;;;;;;;;;;2106881;27;4677;-75
2021/10/05 00:26:38;;;;;;;;;;;;;;;;;;2106879;27;4801;-75
2021/10/05 00:27:47;;;;;;;;;;;;;;;;;;2108095;27;4515;-75
2021/10/05 00:28:49;;;;;;;;;;;;;;;;;;2106966;27;4054;-75
2021/10/05 00:29:49;;;;;;;;;;;;;;;;;;2107506;27;1311;-75
2021/10/05 00:30:50;;;;;;;;;;;;;;;;;;2107455;27;3065;-75
2021/10/05 00:31:50;;;;;;;;;;;;;;;;;;2106551;27;4849;-75
2021/10/05 00:32:51;;;;;;;;;;;;;;;;;;2107345;27;2377;-76
2021/10/05 00:33:51;;;;;;;;;;;;;;;;;;2107630;27;1177;-75
2021/10/05 00:34:52;;;;;;;;;;;;;;;;;;2107146;27;2293;-75
2021/10/05 00:35:52;;;;;;;;;;;;;;;;;;2107278;27;3217;-75
2021/10/05 00:36:54;;;;;;;;;;;;;;;;;;2105909;27;4778;-75
2021/10/05 00:37:55;;;;;;;;;;;;;;;;;;2107653;27;1902;-75
2021/10/05 00:38:55;;;;;;;;;;;;;;;;;;2106986;27;4090;-75
2021/10/05 00:39:56;;;;;;;;;;;;;;;;;;2107309;27;1220;-76
2021/10/05 00:40:56;;;;;;;;;;;;;;;;;;2106741;27;4477;-75
2021/10/05 00:41:57;;;;;;;;;;;;;;;;;;2107438;27;1145;-75
2021/10/05 00:42:57;;;;;;;;;;;;;;;;;;2107601;27;1354;-75
2021/10/05 00:44:01;;;;;;;;;;;;;;;;;;2108279;27;1200;-75
2021/10/05 00:45:02;;;;;;;;;;;;;;;;;;2107801;27;1180;-75
2021/10/05 00:46:03;;;;;;;;;;;;;;;;;;2107208;27;1106;-75
2021/10/05 00:47:03;;;;;;;;;;;;;;;;;;2107464;27;4683;-75
2021/10/05 00:48:04;;;;;;;;;;;;;;;;;;2106960;27;4786;-75
2021/10/05 00:49:04;;;;;;;;;;;;;;;;;;2106400;27;4339;-76
2021/10/05 00:50:06;;;;;;;;;;;;;;;;;;2107094;27;1296;-75
2021/10/05 00:51:06;;;;;;;;;;;;;;;;;;2106841;27;1444;-75
2021/10/05 00:52:07;;;;;;;;;;;;;;;;;;2107495;27;1163;-75
2021/10/05 00:53:08;;;;;;;;;;;;;;;;;;2107947;27;1302;-75
2021/10/05 00:54:09;;;;;;;;;;;;;;;;;;2107257;27;1156;-75
2021/10/05 00:55:09;;;;;;;;;;;;;;;;;;2106842;27;1209;-75
2021/10/05 00:56:10;;;;;;;;;;;;;;;;;;2106550;27;2481;-75
2021/10/05 00:57:10;;;;;;;;;;;;;;;;;;2106288;27;4853;-75
2021/10/05 00:58:11;;;;;;;;;;;;;;;;;;2107396;27;1987;-75
2021/10/05 00:59:11;;;;;;;;;;;;;;;;;;2105047;27;2846;-75
2021/10/05 01:00:12;;;;;;;;;;;;;;;;;;2106530;27;1556;-75
2021/10/05 01:01:12;;;;;;;;;;;;;;;;;;2107048;27;2769;-75
2021/10/05 01:02:13;;;;;;;;;;;;;;;;;;2107257;27;2699;-75
2021/10/05 01:03:16;;;;;;;;;;;;;;;;;;2105955;27;3390;-75
2021/10/05 01:04:17;;;;;;;;;;;;;;;;;;2107133;27;1241;-75
2021/10/05 01:05:17;;;;;;;;;;;;;;;;;;2105976;27;4678;-75
2021/10/05 01:06:18;;;;;;;;;;;;;;;;;;2107620;27;1206;-76
2021/10/05 01:07:19;;;;;;;;;;;;;;;;;;2105608;27;2963;-76
2021/10/05 01:08:20;;;;;;;;;;;;;;;;;;2106797;27;2710;-75
2021/10/05 01:09:20;;;;;;;;;;;;;;;;;;2106657;27;2875;-75
2021/10/05 01:10:21;;;;;;;;;;;;;;;;;;2107323;27;3434;-76
2021/10/05 01:11:23;;;;;;;;;;;;;;;;;;2106918;27;1381;-75
2021/10/05 01:12:24;;;;;;;;;;;;;;;;;;2106316;27;4886;-75
2021/10/05 01:13:25;;;;;;;;;;;;;;;;;;2107047;27;4977;-75
2021/10/05 01:14:26;;;;;;;;;;;;;;;;;;2107483;27;4627;-75
2021/10/05 01:15:29;;;;;;;;;;;;;;;;;;2105730;27;4622;-76
2021/10/05 01:16:29;;;;;;;;;;;;;;;;;;2106978;27;4428;-75
2021/10/05 01:17:30;;;;;;;;;;;;;;;;;;2107012;27;4837;-75
2021/10/05 01:18:31;;;;;;;;;;;;;;;;;;2105331;27;5082;-75
2021/10/05 01:19:31;;;;;;;;;;;;;;;;;;2106968;27;1162;-75
2021/10/05 01:20:32;;;;;;;;;;;;;;;;;;2108181;27;1816;-76
2021/10/05 01:21:32;;;;;;;;;;;;;;;;;;2106052;27;5059;-75
2021/10/05 01:22:33;;;;;;;;;;;;;;;;;;2105693;27;4505;-76
2021/10/05 01:23:35;;;;;;;;;;;;;;;;;;2106985;27;1227;-75
2021/10/05 01:24:35;;;;;;;;;;;;;;;;;;2107613;27;1158;-75
2021/10/05 01:25:36;;;;;;;;;;;;;;;;;;2107351;27;3878;-75
2021/10/05 01:26:42;;;;;;;;;;;;;;;;;;2107673;27;4861;-75
2021/10/05 01:27:43;;;;;;;;;;;;;;;;;;2107737;27;2776;-75
2021/10/05 01:28:44;;;;;;;;;;;;;;;;;;2107629;27;4533;-75
2021/10/05 01:29:44;;;;;;;;;;;;;;;;;;2111895;27;2557;-75
2021/10/05 01:30:45;;;;;;;;;;;;;;;;;;2108303;27;4392;-75
2021/10/05 01:31:46;;;;;;;;;;;;;;;;;;2109756;27;4859;-75
2021/10/05 01:32:47;;;;;;;;;;;;;;;;;;2110243;27;4518;-75
2021/10/05 01:33:47;;;;;;;;;;;;;;;;;;2108736;27;3922;-75
2021/10/05 01:34:48;;;;;;;;;;;;;;;;;;2109628;27;5331;-76
2021/10/05 01:35:48;;;;;;;;;;;;;;;;;;2109767;27;2585;-75
2021/10/05 01:36:49;;;;;;;;;;;;;;;;;;2110777;27;5379;-75
2021/10/05 01:37:49;;;;;;;;;;;;;;;;;;2110840;27;2191;-75
2021/10/05 01:38:50;;;;;;;;;;;;;;;;;;2107732;27;4315;-75
2021/10/05 01:39:51;;;;;;;;;;;;;;;;;;2106527;27;2465;-76
2021/10/05 01:40:52;;;;;;;;;;;;;;;;;;2107490;27;2395;-75
2021/10/05 01:41:52;;;;;;;;;;;;;;;;;;2105401;27;3980;-75
2021/10/05 01:42:53;;;;;;;;;;;;;;;;;;2106648;27;4570;-75
2021/10/05 01:43:53;;;;;;;;;;;;;;;;;;2108082;27;1228;-75
2021/10/05 01:44:56;;;;;;;;;;;;;;;;;;2107014;27;4825;-75
2021/10/05 01:45:58;;;;;;;;;;;;;;;;;;2110891;27;3074;-75
2021/10/05 01:46:59;;;;;;;;;;;;;;;;;;2110185;27;4357;-75
2021/10/05 01:48:00;;;;;;;;;;;;;;;;;;2112838;27;4878;-75
2021/10/05 01:49:00;;;;;;;;;;;;;;;;;;2108513;27;4223;-75
2021/10/05 01:50:01;;;;;;;;;;;;;;;;;;2110019;27;2632;-75
2021/10/05 01:51:01;;;;;;;;;;;;;;;;;;2109997;27;4797;-75
2021/10/05 01:52:02;;;;;;;;;;;;;;;;;;2108670;27;4939;-75
2021/10/05 01:53:04;;;;;;;;;;;;;;;;;;2108931;27;4625;-75
2021/10/05 01:54:04;;;;;;;;;;;;;;;;;;2107784;27;4647;-75
2021/10/05 01:55:05;;;;;;;;;;;;;;;;;;2107023;27;3802;-75
2021/10/05 01:56:05;;;;;;;;;;;;;;;;;;2108056;27;2160;-75
2021/10/05 01:57:06;;;;;;;;;;;;;;;;;;2107087;27;4083;-75
2021/10/05 01:58:06;;;;;;;;;;;;;;;;;;2107092;27;4648;-75
2021/10/05 01:59:07;;;;;;;;;;;;;;;;;;2106298;27;3334;-75
2021/10/05 02:00:07;;;;;;;;;;;;;;;;;;2107341;27;4347;-75
2021/10/05 02:01:09;;;;;;;;;;;;;;;;;;2107455;27;1966;-75
2021/10/05 02:02:09;;;;;;;;;;;;;;;;;;2107314;27;3672;-75
2021/10/05 02:03:12;;;;;;;;;;;;;;;;;;2107750;27;1627;-75
2021/10/05 02:04:12;;;;;;;;;;;;;;;;;;2107448;27;4142;-75
2021/10/05 02:05:14;;;;;;;;;;;;;;;;;;2108061;27;4630;-75
2021/10/05 02:06:14;;;;;;;;;;;;;;;;;;2107271;27;3480;-75
2021/10/05 02:07:15;;;;;;;;;;;;;;;;;;2107263;27;4660;-76
2021/10/05 02:08:15;;;;;;;;;;;;;;;;;;2108101;27;2574;-75
2021/10/05 02:09:16;;;;;;;;;;;;;;;;;;2106929;27;4200;-75
2021/10/05 02:10:17;;;;;;;;;;;;;;;;;;2107500;27;2122;-75
2021/10/05 02:11:17;;;;;;;;;;;;;;;;;;2106855;27;2560;-75
2021/10/05 02:12:18;;;;;;;;;;;;;;;;;;2107486;27;2678;-75
2021/10/05 02:13:19;;;;;;;;;;;;;;;;;;2108904;27;2044;-75
2021/10/05 02:14:20;;;;;;;;;;;;;;;;;;2106272;27;2912;-75
2021/10/05 02:15:21;;;;;;;;;;;;;;;;;;2103216;27;4390;-75
2021/10/05 02:16:21;;;;;;;;;;;;;;;;;;2106198;27;2702;-75
2021/10/05 02:17:25;;;;;;;;;;;;;;;;;;2106945;27;3129;-75
2021/10/05 02:18:25;;;;;;;;;;;;;;;;;;2105801;27;2680;-75
2021/10/05 02:19:26;;;;;;;;;;;;;;;;;;2106132;27;3661;-75
2021/10/05 02:20:26;;;;;;;;;;;;;;;;;;2107269;27;3887;-76
2021/10/05 02:21:27;;;;;;;;;;;;;;;;;;2107218;27;2842;-75
2021/10/05 02:22:28;;;;;;;;;;;;;;;;;;2107838;27;2696;-75
2021/10/05 02:24:45;;;;;;;;;;;;;;;;;;2106804;27;1149;-76
2021/10/05 02:25:45;;;;;;;;;;;;;;;;;;2106423;27;4805;-75
2021/10/05 02:26:46;;;;;;;;;;;;;;;;;;2107658;27;4104;-75
2021/10/05 02:27:47;;;;;;;;;;;;;;;;;;2108801;27;1090;-75
2021/10/05 02:28:47;;;;;;;;;;;;;;;;;;2107458;27;4344;-75
2021/10/05 02:29:48;;;;;;;;;;;;;;;;;;2108710;27;1456;-75
2021/10/05 02:30:48;;;;;;;;;;;;;;;;;;2107021;27;3704;-75
2021/10/05 02:31:49;;;;;;;;;;;;;;;;;;2108098;27;1172;-75
2021/10/05 02:32:50;;;;;;;;;;;;;;;;;;2108352;27;2208;-75
2021/10/05 02:33:51;;;;;;;;;;;;;;;;;;2107312;27;3727;-75
2021/10/05 02:34:52;;;;;;;;;;;;;;;;;;2107266;27;4817;-75
2021/10/05 02:35:52;;;;;;;;;;;;;;;;;;2107492;27;5052;-75
2021/10/05 02:36:53;;;;;;;;;;;;;;;;;;2106740;27;4336;-76
2021/10/05 02:37:53;;;;;;;;;;;;;;;;;;2106289;27;2868;-75
2021/10/05 02:38:54;;;;;;;;;;;;;;;;;;2103736;27;4674;-75
2021/10/05 02:39:55;;;;;;;;;;;;;;;;;;2108237;27;1528;-75
2021/10/05 02:40:55;;;;;;;;;;;;;;;;;;2107302;27;4362;-75
2021/10/05 02:41:56;;;;;;;;;;;;;;;;;;2107663;27;3863;-75
2021/10/05 02:42:58;;;;;;;;;;;;;;;;;;2108267;27;4757;-75
2021/10/05 02:43:58;;;;;;;;;;;;;;;;;;2107532;27;4002;-75
2021/10/05 02:44:59;;;;;;;;;;;;;;;;;;2108031;27;3707;-76
2021/10/05 02:45:59;;;;;;;;;;;;;;;;;;2108175;27;3153;-75
2021/10/05 02:47:01;;;;;;;;;;;;;;;;;;2107505;27;3256;-76
2021/10/05 02:48:01;;;;;;;;;;;;;;;;;;2107599;27;3397;-76
2021/10/05 02:49:02;;;;;;;;;;;;;;;;;;2105490;27;4278;-76
2021/10/05 02:50:02;;;;;;;;;;;;;;;;;;2108656;27;2115;-75
2021/10/05 02:51:03;;;;;;;;;;;;;;;;;;2107884;27;4726;-75
2021/10/05 02:52:04;;;;;;;;;;;;;;;;;;2108347;27;4082;-75
2021/10/05 02:53:04;;;;;;;;;;;;;;;;;;2108485;27;2114;-76
2021/10/05 02:54:05;;;;;;;;;;;;;;;;;;2104227;27;6025;-75
2021/10/05 02:55:06;;;;;;;;;;;;;;;;;;2106852;27;4938;-76
2021/10/05 02:56:07;;;;;;;;;;;;;;;;;;2104878;27;6466;-75
2021/10/05 02:57:07;;;;;;;;;;;;;;;;;;2105628;27;5609;-75
2021/10/05 02:58:08;;;;;;;;;;;;;;;;;;2106761;27;5325;-75
2021/10/05 02:59:08;;;;;;;;;;;;;;;;;;2104821;27;4677;-75
2021/10/05 03:00:09;;;;;;;;;;;;;;;;;;2105396;27;5873;-75
2021/10/05 03:01:09;;;;;;;;;;;;;;;;;;2105937;27;5499;-75
2021/10/05 03:02:10;;;;;;;;;;;;;;;;;;2107173;27;5484;-75
2021/10/05 03:03:11;;;;;;;;;;;;;;;;;;2107801;27;4496;-75
2021/10/05 03:04:12;;;;;;;;;;;;;;;;;;2105025;27;5459;-75
2021/10/05 03:05:13;;;;;;;;;;;;;;;;;;2106494;27;4429;-75
2021/10/05 03:06:13;;;;;;;;;;;;;;;;;;2107575;27;1147;-76
2021/10/05 03:07:14;;;;;;;;;;;;;;;;;;2106989;27;1211;-75
2021/10/05 03:08:14;;;;;;;;;;;;;;;;;;2106322;27;4417;-75
2021/10/05 03:09:15;;;;;;;;;;;;;;;;;;2105319;27;4900;-75
2021/10/05 03:10:15;;;;;;;;;;;;;;;;;;2106122;27;1357;-75
2021/10/05 03:11:17;;;;;;;;;;;;;;;;;;2106309;27;4625;-75
2021/10/05 03:12:17;;;;;;;;;;;;;;;;;;2106642;27;1289;-76
2021/10/05 03:13:18;;;;;;;;;;;;;;;;;;2105618;27;2180;-75
2021/10/05 03:14:18;;;;;;;;;;;;;;;;;;2103927;27;4756;-75
2021/10/05 03:15:19;;;;;;;;;;;;;;;;;;2106517;27;4809;-75
2021/10/05 03:16:19;;;;;;;;;;;;;;;;;;2105596;27;5145;-75
2021/10/05 03:17:20;;;;;;;;;;;;;;;;;;2105658;27;4689;-76
2021/10/05 03:18:20;;;;;;;;;;;;;;;;;;2104852;27;5038;-75
2021/10/05 03:19:21;;;;;;;;;;;;;;;;;;2106406;27;1995;-76
2021/10/05 03:20:22;;;;;;;;;;;;;;;;;;2106583;27;1309;-75
2021/10/05 03:21:23;;;;;;;;;;;;;;;;;;2105445;27;1259;-75
2021/10/05 03:22:23;;;;;;;;;;;;;;;;;;2105654;27;1146;-75
2021/10/05 03:23:24;;;;;;;;;;;;;;;;;;2107742;27;1115;-76
2021/10/05 03:24:25;;;;;;;;;;;;;;;;;;2110676;27;1954;-76
2021/10/05 03:25:25;;;;;;;;;;;;;;;;;;2109566;27;1227;-76
2021/10/05 03:26:26;;;;;;;;;;;;;;;;;;2109576;27;1221;-75
2021/10/05 03:27:26;;;;;;;;;;;;;;;;;;2110582;27;1235;-75
2021/10/05 03:28:27;;;;;;;;;;;;;;;;;;2109995;27;1173;-75
2021/10/05 03:29:28;;;;;;;;;;;;;;;;;;2109696;27;1098;-75
2021/10/05 03:30:29;;;;;;;;;;;;;;;;;;2108737;27;1302;-75
2021/10/05 03:31:30;;;;;;;;;;;;;;;;;;2106594;27;2127;-75
2021/10/05 03:32:31;;;;;;;;;;;;;;;;;;2108516;27;1029;-75
2021/10/05 03:33:31;;;;;;;;;;;;;;;;;;2108691;27;1565;-75
2021/10/05 03:34:32;;;;;;;;;;;;;;;;;;2110507;27;1240;-75
2021/10/05 03:35:32;;;;;;;;;;;;;;;;;;2106875;27;1224;-75
2021/10/05 03:36:33;;;;;;;;;;;;;;;;;;2105461;27;1283;-76
2021/10/05 03:37:33;;;;;;;;;;;;;;;;;;2105953;27;1247;-75
2021/10/05 03:38:34;;;;;;;;;;;;;;;;;;2106779;27;1391;-75
2021/10/05 03:39:35;;;;;;;;;;;;;;;;;;2106636;27;1918;-75
2021/10/05 03:40:36;;;;;;;;;;;;;;;;;;2106355;27;1459;-76
2021/10/05 03:42:39;;;;;;;;;;;;;;;;;;2121426;27;1519;-76
2021/10/05 03:43:39;;;;;;;;;;;;;;;;;;2122429;27;1101;-76
2021/10/05 03:44:41;;;;;;;;;;;;;;;;;;2122961;27;1179;-76
2021/10/05 03:45:41;;;;;;;;;;;;;;;;;;2122151;27;1176;-75
2021/10/05 03:46:42;;;;;;;;;;;;;;;;;;2123256;27;1947;-75
2021/10/05 03:47:42;;;;;;;;;;;;;;;;;;2122510;27;1229;-76
2021/10/05 03:48:43;;;;;;;;;;;;;;;;;;2123076;27;1137;-75
2021/10/05 03:49:44;;;;;;;;;;;;;;;;;;2121559;27;1387;-76
2021/10/05 03:50:45;;;;;;;;;;;;;;;;;;2114629;27;3402;-75
2021/10/05 03:51:46;;;;;;;;;;;;;;;;;;2113082;27;3436;-75
2021/10/05 03:52:48;;;;;;;;;;;;;;;;;;2113646;27;1217;-76
2021/10/05 03:53:48;;;;;;;;;;;;;;;;;;2113993;27;1561;-76
2021/10/05 03:54:49;;;;;;;;;;;;;;;;;;2114240;27;1101;-75
2021/10/05 03:55:49;;;;;;;;;;;;;;;;;;2114341;27;1182;-75
2021/10/05 03:56:50;;;;;;;;;;;;;;;;;;2114322;27;1029;-75
2021/10/05 03:57:51;;;;;;;;;;;;;;;;;;2114118;27;1040;-75
2021/10/05 03:58:52;;;;;;;;;;;;;;;;;;2113979;27;1201;-75
2021/10/05 03:59:52;;;;;;;;;;;;;;;;;;2114006;27;1329;-75
2021/10/05 04:00:53;;;;;;;;;;;;;;;;;;2113932;27;1196;-75
2021/10/05 04:01:53;;;;;;;;;;;;;;;;;;2113878;27;1913;-75
2021/10/05 04:02:55;;;;;;;;;;;;;;;;;;2114280;27;1141;-75
2021/10/05 04:03:55;;;;;;;;;;;;;;;;;;2114045;27;1108;-75
2021/10/05 04:04:56;;;;;;;;;;;;;;;;;;2113163;27;1195;-75
2021/10/05 04:05:56;;;;;;;;;;;;;;;;;;2114859;27;1244;-75
2021/10/05 04:06:57;;;;;;;;;;;;;;;;;;2114217;27;1427;-75
2021/10/05 04:07:58;;;;;;;;;;;;;;;;;;2114125;27;1536;-75
2021/10/05 04:08:59;;;;;;;;;;;;;;;;;;2113413;27;1042;-76
2021/10/05 04:09:59;;;;;;;;;;;;;;;;;;2114792;27;1404;-76
2021/10/05 04:11:01;;;;;;;;;;;;;;;;;;2114821;27;3584;-76
2021/10/05 04:12:01;;;;;;;;;;;;;;;;;;2114119;27;1200;-75
2021/10/05 04:13:02;;;;;;;;;;;;;;;;;;2114539;27;1064;-76
2021/10/05 04:14:02;;;;;;;;;;;;;;;;;;2114217;27;1740;-75
2021/10/05 04:15:03;;;;;;;;;;;;;;;;;;2113977;27;1076;-76
2021/10/05 04:16:03;;;;;;;;;;;;;;;;;;2114840;27;1165;-76
2021/10/05 04:17:04;;;;;;;;;;;;;;;;;;2113528;27;2057;-75
2021/10/05 04:18:05;;;;;;;;;;;;;;;;;;2113718;27;2280;-75
2021/10/05 04:19:06;;;;;;;;;;;;;;;;;;2114731;27;1228;-75
2021/10/05 04:20:06;;;;;;;;;;;;;;;;;;2114914;27;1540;-75
2021/10/05 04:21:08;;;;;;;;;;;;;;;;;;2115483;27;1322;-75
2021/10/05 04:22:09;;;;;;;;;;;;;;;;;;2114409;27;1909;-75
2021/10/05 04:23:10;;;;;;;;;;;;;;;;;;2114740;27;1041;-75
2021/10/05 04:24:10;;;;;;;;;;;;;;;;;;2114383;27;1160;-75
2021/10/05 04:25:11;;;;;;;;;;;;;;;;;;2114743;27;1032;-75
2021/10/05 04:26:11;;;;;;;;;;;;;;;;;;2114992;27;1259;-75
2021/10/05 04:27:12;;;;;;;;;;;;;;;;;;2114146;27;1330;-75
2021/10/05 04:28:14;;;;;;;;;;;;;;;;;;2115185;27;1301;-75
2021/10/05 04:29:14;;;;;;;;;;;;;;;;;;2114473;27;1140;-75
2021/10/05 04:30:15;;;;;;;;;;;;;;;;;;2113781;27;1298;-75
2021/10/05 04:31:16;;;;;;;;;;;;;;;;;;2113659;27;1099;-76
2021/10/05 04:32:16;;;;;;;;;;;;;;;;;;2113580;27;1069;-76
2021/10/05 04:33:17;;;;;;;;;;;;;;;;;;2113037;27;2299;-75
2021/10/05 04:34:18;;;;;;;;;;;;;;;;;;2115598;27;1456;-75
2021/10/05 04:35:18;;;;;;;;;;;;;;;;;;2113791;27;1130;-76
2021/10/05 04:36:19;;;;;;;;;;;;;;;;;;2114950;27;1231;-76
2021/10/05 04:37:19;;;;;;;;;;;;;;;;;;2114362;27;1187;-75
2021/10/05 04:38:21;;;;;;;;;;;;;;;;;;2113611;27;1107;-76
2021/10/05 04:39:21;;;;;;;;;;;;;;;;;;2113533;27;1125;-76
2021/10/05 04:40:22;;;;;;;;;;;;;;;;;;2113315;27;1295;-75
2021/10/05 04:41:22;;;;;;;;;;;;;;;;;;2114491;27;1701;-75
2021/10/05 04:42:24;;;;;;;;;;;;;;;;;;2113627;27;1959;-75
2021/10/05 04:43:25;;;;;;;;;;;;;;;;;;2114150;27;1110;-76
2021/10/05 04:44:25;;;;;;;;;;;;;;;;;;2114016;27;1192;-76
2021/10/05 04:45:26;;;;;;;;;;;;;;;;;;2116003;27;1378;-76
2021/10/05 04:46:26;;;;;;;;;;;;;;;;;;2114242;27;1170;-75
2021/10/05 04:47:27;;;;;;;;;;;;;;;;;;2114946;27;1083;-75
2021/10/05 04:48:27;;;;;;;;;;;;;;;;;;2113787;27;3416;-75
2021/10/05 04:49:28;;;;;;;;;;;;;;;;;;2114921;27;1226;-75
2021/10/05 04:50:28;;;;;;;;;;;;;;;;;;2114018;27;3624;-75
2021/10/05 04:51:30;;;;;;;;;;;;;;;;;;2115059;27;1408;-75
2021/10/05 04:52:30;;;;;;;;;;;;;;;;;;2114877;27;1279;-75
2021/10/05 04:53:31;;;;;;;;;;;;;;;;;;2109631;27;1126;-75
2021/10/05 04:54:32;;;;;;;;;;;;;;;;;;2110935;27;1407;-76
2021/10/05 04:55:33;;;;;;;;;;;;;;;;;;2113282;27;1001;-75
2021/10/05 04:56:33;;;;;;;;;;;;;;;;;;2114352;27;1221;-75
2021/10/05 04:57:34;;;;;;;;;;;;;;;;;;2113976;27;1202;-75
2021/10/05 04:58:34;;;;;;;;;;;;;;;;;;2113046;27;1101;-75
2021/10/05 04:59:35;;;;;;;;;;;;;;;;;;2114240;27;1117;-75
2021/10/05 05:00:35;;;;;;;;;;;;;;;;;;2113793;27;1409;-75
2021/10/05 05:01:37;;;;;;;;;;;;;;;;;;2110388;27;1905;-76
2021/10/05 05:02:37;;;;;;;;;;;;;;;;;;2108119;27;1386;-75
2021/10/05 05:03:38;;;;;;;;;;;;;;;;;;2108276;27;1092;-75
2021/10/05 05:04:38;;;;;;;;;;;;;;;;;;2108343;27;1068;-76
2021/10/05 05:05:39;;;;;;;;;;;;;;;;;;2108663;27;1071;-75
2021/10/05 05:06:39;;;;;;;;;;;;;;;;;;2108415;27;1183;-76
2021/10/05 05:07:40;;;;;;;;;;;;;;;;;;2107758;27;1188;-75
2021/10/05 05:08:40;;;;;;;;;;;;;;;;;;2108004;27;1188;-75
2021/10/05 05:09:41;;;;;;;;;;;;;;;;;;2107736;27;1314;-76
2021/10/05 05:10:42;;;;;;;;;;;;;;;;;;2108300;27;1285;-75
2021/10/05 05:11:43;;;;;;;;;;;;;;;;;;2108513;27;1221;-75
2021/10/05 05:12:44;;;;;;;;;;;;;;;;;;2107926;27;1176;-75
2021/10/05 05:13:45;;;;;;;;;;;;;;;;;;2107878;27;1088;-75
2021/10/05 05:14:45;;;;;;;;;;;;;;;;;;2108484;27;1218;-75
2021/10/05 05:15:46;;;;;;;;;;;;;;;;;;2108319;27;1855;-75
2021/10/05 05:16:47;;;;;;;;;;;;;;;;;;2108272;27;1286;-75
2021/10/05 05:17:48;;;;;;;;;;;;;;;;;;2107888;27;1221;-75
2021/10/05 05:18:49;;;;;;;;;;;;;;;;;;2109085;27;1074;-75
2021/10/05 05:19:50;;;;;;;;;;;;;;;;;;2108187;27;1223;-75
2021/10/05 05:20:50;;;;;;;;;;;;;;;;;;2106822;27;1353;-75
2021/10/05 05:21:51;;;;;;;;;;;;;;;;;;2108567;27;1988;-76
2021/10/05 05:22:51;;;;;;;;;;;;;;;;;;2107342;27;1111;-75
2021/10/05 05:23:52;;;;;;;;;;;;;;;;;;2107972;27;1524;-75
2021/10/05 05:24:53;;;;;;;;;;;;;;;;;;2108200;27;1550;-75
2021/10/05 05:25:53;;;;;;;;;;;;;;;;;;2108039;27;1188;-75
2021/10/05 05:26:54;;;;;;;;;;;;;;;;;;2108340;27;1268;-75
2021/10/05 05:27:55;;;;;;;;;;;;;;;;;;2108042;27;1118;-75
2021/10/05 05:28:56;;;;;;;;;;;;;;;;;;2108313;27;1427;-75
2021/10/05 05:29:57;;;;;;;;;;;;;;;;;;2107418;27;1293;-75
2021/10/05 05:30:58;;;;;;;;;;;;;;;;;;2107992;27;1202;-75
2021/10/05 05:31:58;;;;;;;;;;;;;;;;;;2107190;27;1293;-75
2021/10/05 05:32:59;;;;;;;;;;;;;;;;;;2107617;27;978;-75
2021/10/05 05:33:59;;;;;;;;;;;;;;;;;;2107920;27;1176;-75
2021/10/05 05:35:00;;;;;;;;;;;;;;;;;;2108476;27;1387;-75
2021/10/05 05:36:02;;;;;;;;;;;;;;;;;;2107538;27;1173;-75
2021/10/05 05:37:03;;;;;;;;;;;;;;;;;;2107787;27;1164;-75
2021/10/05 05:38:04;;;;;;;;;;;;;;;;;;2108004;27;1356;-75
2021/10/05 05:39:05;;;;;;;;;;;;;;;;;;2107752;27;1100;-75
2021/10/05 05:40:05;;;;;;;;;;;;;;;;;;2107994;27;1301;-75
2021/10/05 05:41:06;;;;;;;;;;;;;;;;;;2107925;27;1068;-75
2021/10/05 05:42:07;;;;;;;;;;;;;;;;;;2107178;27;1957;-75
2021/10/05 05:43:07;;;;;;;;;;;;;;;;;;2107662;27;1139;-75
2021/10/05 05:44:08;;;;;;;;;;;;;;;;;;2107612;27;3578;-75
2021/10/05 05:45:09;;;;;;;;;;;;;;;;;;2107494;27;1126;-75
2021/10/05 05:46:09;;;;;;;;;;;;;;;;;;2107688;27;1139;-75
2021/10/05 05:47:10;;;;;;;;;;;;;;;;;;2108302;27;1084;-75
2021/10/05 05:48:11;;;;;;;;;;;;;;;;;;2107944;27;1046;-75
2021/10/05 05:49:13;;;;;;;;;;;;;;;;;;2108285;27;1085;-75
2021/10/05 05:50:13;;;;;;;;;;;;;;;;;;2108895;27;1361;-75
2021/10/05 05:51:14;;;;;;;;;;;;;;;;;;2107332;27;3692;-75
2021/10/05 05:52:14;;;;;;;;;;;;;;;;;;2108761;27;1246;-75
2021/10/05 05:53:17;;;;;;;;;;;;;;;;;;2108586;27;1193;-75
2021/10/05 05:54:18;;;;;;;;;;;;;;;;;;2108274;27;1249;-75
2021/10/05 05:55:19;;;;;;;;;;;;;;;;;;2108034;27;1332;-75
2021/10/05 05:56:20;;;;;;;;;;;;;;;;;;2108326;27;1258;-75
2021/10/05 05:57:20;;;;;;;;;;;;;;;;;;2107628;27;1061;-75
2021/10/05 05:58:21;;;;;;;;;;;;;;;;;;2107878;27;1079;-75
2021/10/05 05:59:22;;;;;;;;;;;;;;;;;;2107873;27;1158;-75
2021/10/05 06:00:22;;;;;;;;;;;;;;;;;;2108392;27;1339;-75
2021/10/05 06:01:23;;;;;;;;;;;;;;;;;;2107232;27;1966;-75
2021/10/05 06:02:23;;;;;;;;;;;;;;;;;;2107960;27;1942;-75
2021/10/05 06:03:24;;;;;;;;;;;;;;;;;;2108156;27;1169;-75
2021/10/05 06:04:25;;;;;;;;;;;;;;;;;;2106566;27;1156;-75
2021/10/05 06:05:26;;;;;;;;;;;;;;;;;;2106223;27;1014;-76
2021/10/05 06:06:29;;;;;;;;;;;;;;;;;;2109397;27;1202;-75
2021/10/05 06:07:30;;;;;;;;;;;;;;;;;;2107886;27;1097;-75
2021/10/05 06:08:30;;;;;;;;;;;;;;;;;;2107273;27;1188;-75
2021/10/05 06:09:33;;;;;;;;;;;;;;;;;;2107434;27;1185;-75
2021/10/05 06:10:33;;;;;;;;;;;;;;;;;;2107419;27;1269;-75
2021/10/05 06:11:37;;;;;;;;;;;;;;;;;;2106808;27;1354;-75
2021/10/05 06:12:38;;;;;;;;;;;;;;;;;;2107156;27;1104;-75
2021/10/05 06:13:40;;;;;;;;;;;;;;;;;;2107326;27;1183;-75
2021/10/05 06:14:40;;;;;;;;;;;;;;;;;;2107856;27;1156;-75
2021/10/05 06:15:41;;;;;;;;;;;;;;;;;;2107556;27;1221;-75
2021/10/05 06:16:42;;;;;;;;;;;;;;;;;;2108398;27;1549;-75
2021/10/05 06:17:43;;;;;;;;;;;;;;;;;;2107178;27;1439;-75
2021/10/05 06:18:44;;;;;;;;;;;;;;;;;;2106935;27;1097;-75
2021/10/05 06:19:44;;;;;;;;;;;;;;;;;;2108370;27;1282;-75
2021/10/05 06:20:46;;;;;;;;;;;;;;;;;;2106877;27;1394;-75
2021/10/05 06:21:46;;;;;;;;;;;;;;;;;;2106787;27;1014;-75
2021/10/05 06:22:47;;;;;;;;;;;;;;;;;;2107306;27;2022;-75
2021/10/05 06:23:47;;;;;;;;;;;;;;;;;;2107383;27;1222;-75
2021/10/05 06:24:48;;;;;;;;;;;;;;;;;;2107929;27;1157;-76
2021/10/05 06:25:52;;;;;;;;;;;;;;;;;;2107403;27;1303;-75
2021/10/05 06:26:53;;;;;;;;;;;;;;;;;;2107860;27;1122;-75
2021/10/05 06:27:56;;;;;;;;;;;;;;;;;;2108316;27;1181;-75
2021/10/05 06:28:57;;;;;;;;;;;;;;;;;;2107217;27;1262;-75
2021/10/05 06:29:58;;;;;;;;;;;;;;;;;;2107795;27;2168;-75
2021/10/05 06:31:00;;;;;;;;;;;;;;;;;;2107466;27;1144;-75
2021/10/05 06:32:00;;;;;;;;;;;;;;;;;;2108098;27;1242;-76
2021/10/05 06:33:02;;;;;;;;;;;;;;;;;;2107351;27;993;-75
2021/10/05 06:34:02;;;;;;;;;;;;;;;;;;2108297;27;1134;-75
2021/10/05 06:35:03;;;;;;;;;;;;;;;;;;2108247;27;1320;-75
2021/10/05 06:36:04;;;;;;;;;;;;;;;;;;2108280;27;1313;-75
2021/10/05 06:37:04;;;;;;;;;;;;;;;;;;2107814;27;1102;-75
2021/10/05 06:38:05;;;;;;;;;;;;;;;;;;2108359;27;2007;-75
2021/10/05 06:39:05;;;;;;;;;;;;;;;;;;2108159;27;1031;-75
2021/10/05 06:40:06;;;;;;;;;;;;;;;;;;2106892;27;3262;-75
2021/10/05 06:41:07;;;;;;;;;;;;;;;;;;2107165;27;1000;-75
2021/10/05 06:42:08;;;;;;;;;;;;;;;;;;2108151;27;1122;-75
2021/10/05 06:43:08;;;;;;;;;;;;;;;;;;2107473;27;1898;-75
2021/10/05 06:44:09;;;;;;;;;;;;;;;;;;2108947;27;1122;-75
2021/10/05 06:45:09;;;;;;;;;;;;;;;;;;2108022;27;1117;-75
2021/10/05 06:46:10;;;;;;;;;;;;;;;;;;2108388;27;1168;-75
2021/10/05 06:47:10;;;;;;;;;;;;;;;;;;2107290;27;1040;-75
2021/10/05 06:48:11;;;;;;;;;;;;;;;;;;2107331;27;1036;-75
2021/10/05 06:49:12;;;;;;;;;;;;;;;;;;2106832;27;1320;-75
2021/10/05 06:50:13;;;;;;;;;;;;;;;;;;2107983;27;1281;-75
2021/10/05 06:51:13;;;;;;;;;;;;;;;;;;2107291;27;3434;-75
2021/10/05 06:52:14;;;;;;;;;;;;;;;;;;2107316;27;1141;-75
2021/10/05 06:53:16;;;;;;;;;;;;;;;;;;2106813;27;1184;-75
2021/10/05 06:54:17;;;;;;;;;;;;;;;;;;2107136;27;1198;-76
2021/10/05 06:55:18;;;;;;;;;;;;;;;;;;2107286;27;1630;-75
2021/10/05 06:56:18;;;;;;;;;;;;;;;;;;2106644;27;1144;-75
2021/10/05 06:57:19;;;;;;;;;;;;;;;;;;2107116;27;1032;-75
2021/10/05 06:58:20;;;;;;;;;;;;;;;;;;2107638;27;1190;-75
2021/10/05 06:59:20;;;;;;;;;;;;;;;;;;2106162;27;1358;-75
2021/10/05 07:00:21;;;;;;;;;;;;;;;;;;2107845;27;1370;-75
2021/10/05 07:01:22;;;;;;;;;;;;;;;;;;2108438;27;1038;-75
2021/10/05 07:02:22;;;;;;;;;;;;;;;;;;2107405;27;1946;-76
2021/10/05 07:03:24;;;;;;;;;;;;;;;;;;2108047;27;1058;-75
2021/10/05 07:04:24;;;;;;;;;;;;;;;;;;2107504;27;1122;-75